Time;durP1;ratioP1;P1;durP2;ratioP2;P2;SDS_P1;SDS_P2;PMS_P1;PMS_P2;Temp;Humidity;BMP_temperature;BMP_pressure;BME280_temperature;BME280_humidity;BME280_pressure;Samples;Min_cycle;Max_cycle;Signal;HPM_P1;HPM_P2
2021/12/09 00:01:52;;;;;;;21.53;12.57;;;;;;;;;;5026648;28;20303;-79
2021/12/09 00:04:25;;;;;;;19.80;13.23;;;;;;;;;;5022310;28;20326;-79
2021/12/09 00:06:54;;;;;;;15.30;12.07;;;;;;;;;;5024302;28;20258;-79
2021/12/09 00:09:21;;;;;;;18.30;12.60;;;;;;;;;;5019199;28;20227;-79
2021/12/09 00:11:50;;;;;;;18.50;12.87;;;;;;;;;;5021138;28;20234;-79
2021/12/09 00:14:18;;;;;;;20.53;12.77;;;;;;;;;;5025451;28;20242;-79
2021/12/09 00:16:46;;;;;;;22.60;13.17;;;;;;;;;;5026747;28;20234;-79
2021/12/09 00:19:13;;;;;;;20.03;13.10;;;;;;;;;;5023513;28;20239;-79
2021/12/09 00:21:41;;;;;;;17.33;12.83;;;;;;;;;;5030211;28;20227;-79
2021/12/09 00:24:08;;;;;;;20.30;12.67;;;;;;;;;;5020234;28;20200;-79
2021/12/09 00:26:35;;;;;;;14.27;10.30;;;;;;;;;;5025038;28;20202;-79
2021/12/09 00:29:02;;;;;;;15.83;11.67;;;;;;;;;;5025855;28;20196;-79
2021/12/09 00:31:29;;;;;;;13.97;11.30;;;;;;;;;;5022601;28;20219;-79
2021/12/09 00:33:59;;;;;;;18.67;12.17;;;;;;;;;;5020217;28;20223;-79
2021/12/09 00:36:35;;;;;;;15.83;11.80;;;;;;;;;;5025378;28;20211;-80
2021/12/09 00:39:02;;;;;;;18.40;12.27;;;;;;;;;;5024840;28;20227;-79
2021/12/09 00:41:29;;;;;;;21.73;12.57;;;;;;;;;;5026250;28;20220;-79
2021/12/09 00:43:56;;;;;;;16.73;12.17;;;;;;;;;;5026231;28;20199;-79
2021/12/09 00:46:23;;;;;;;19.30;12.87;;;;;;;;;;5023075;28;20199;-79
2021/12/09 00:48:50;;;;;;;20.67;12.10;;;;;;;;;;5022755;28;20219;-79
2021/12/09 00:51:19;;;;;;;21.90;13.43;;;;;;;;;;5025673;28;20222;-79
2021/12/09 00:53:46;;;;;;;20.07;13.57;;;;;;;;;;5028859;28;20226;-79
2021/12/09 00:56:13;;;;;;;20.30;11.77;;;;;;;;;;5025710;28;20638;-79
2021/12/09 00:58:41;;;;;;;17.73;11.43;;;;;;;;;;5025543;28;20223;-79
2021/12/09 01:01:09;;;;;;;19.37;12.33;;;;;;;;;;5024047;28;20223;-79
2021/12/09 01:03:37;;;;;;;17.80;11.07;;;;;;;;;;5023165;28;20218;-79
2021/12/09 01:06:05;;;;;;;17.50;11.60;;;;;;;;;;5023750;28;20285;-79
2021/12/09 01:08:33;;;;;;;16.33;11.57;;;;;;;;;;5020947;28;20202;-79
2021/12/09 01:11:01;;;;;;;18.40;12.07;;;;;;;;;;5023342;28;20249;-79
2021/12/09 01:13:28;;;;;;;19.90;11.90;;;;;;;;;;5023178;28;20261;-79
2021/12/09 01:15:55;;;;;;;14.67;11.20;;;;;;;;;;5022007;28;20369;-79
2021/12/09 01:18:22;;;;;;;20.73;12.43;;;;;;;;;;5024295;28;20680;-79
2021/12/09 01:20:49;;;;;;;17.70;11.97;;;;;;;;;;5025107;28;20247;-79
2021/12/09 01:23:16;;;;;;;17.83;11.77;;;;;;;;;;5030360;28;20211;-79
2021/12/09 01:25:45;;;;;;;17.33;11.27;;;;;;;;;;5022976;28;20227;-79
2021/12/09 01:28:20;;;;;;;17.03;11.47;;;;;;;;;;5023300;28;20203;-79
2021/12/09 01:30:49;;;;;;;24.53;13.17;;;;;;;;;;5024074;28;20294;-79
2021/12/09 01:33:16;;;;;;;29.00;13.37;;;;;;;;;;5023984;28;20196;-79
2021/12/09 01:35:47;;;;;;;20.70;12.90;;;;;;;;;;5024769;28;20230;-79
2021/12/09 01:38:15;;;;;;;17.47;12.20;;;;;;;;;;5026190;28;20245;-79
2021/12/09 01:40:44;;;;;;;18.20;13.33;;;;;;;;;;5023645;28;20249;-79
2021/12/09 01:43:11;;;;;;;18.63;12.40;;;;;;;;;;5026146;28;20249;-79
2021/12/09 01:45:39;;;;;;;21.13;12.63;;;;;;;;;;5027049;28;20230;-79
2021/12/09 01:48:06;;;;;;;15.77;12.23;;;;;;;;;;5025724;28;20203;-79
2021/12/09 01:50:34;;;;;;;21.03;12.63;;;;;;;;;;5023505;28;20249;-79
2021/12/09 01:53:02;;;;;;;19.53;12.33;;;;;;;;;;5026455;28;20199;-79
2021/12/09 01:55:30;;;;;;;17.10;12.97;;;;;;;;;;5020462;28;20235;-79
2021/12/09 01:57:58;;;;;;;19.40;12.93;;;;;;;;;;5026734;28;20218;-79
2021/12/09 02:00:27;;;;;;;20.27;12.87;;;;;;;;;;5022923;28;20242;-79
2021/12/09 02:02:54;;;;;;;21.83;13.10;;;;;;;;;;5021640;28;20215;-79
2021/12/09 02:05:21;;;;;;;24.20;13.47;;;;;;;;;;5022291;28;20246;-79
2021/12/09 02:07:49;;;;;;;17.57;12.73;;;;;;;;;;5017526;28;20210;-79
2021/12/09 02:10:18;;;;;;;21.53;12.80;;;;;;;;;;5025771;28;20238;-79
2021/12/09 02:12:47;;;;;;;20.07;12.07;;;;;;;;;;5020709;28;20219;-79
2021/12/09 02:15:15;;;;;;;19.47;12.70;;;;;;;;;;5022571;28;20234;-79
2021/12/09 02:17:42;;;;;;;18.03;11.80;;;;;;;;;;5026340;28;20219;-79
2021/12/09 02:20:10;;;;;;;18.83;12.77;;;;;;;;;;5026091;28;20265;-79
2021/12/09 02:22:38;;;;;;;18.07;13.07;;;;;;;;;;5027411;28;20210;-79
2021/12/09 02:25:06;;;;;;;18.03;11.67;;;;;;;;;;5029399;28;20226;-79
2021/12/09 02:27:33;;;;;;;17.77;11.90;;;;;;;;;;5023571;28;20199;-79
2021/12/09 02:30:00;;;;;;;21.67;12.53;;;;;;;;;;5022609;28;20234;-79
2021/12/09 02:32:27;;;;;;;17.60;12.70;;;;;;;;;;5022350;28;20731;-79
2021/12/09 02:34:54;;;;;;;19.30;11.83;;;;;;;;;;5023383;28;20231;-79
2021/12/09 02:37:21;;;;;;;23.47;12.53;;;;;;;;;;5026090;28;20869;-79
2021/12/09 02:39:50;;;;;;;20.53;11.23;;;;;;;;;;5025049;28;20245;-79
2021/12/09 02:42:17;;;;;;;21.07;10.83;;;;;;;;;;5027816;28;20215;-79
2021/12/09 02:44:45;;;;;;;21.80;10.63;;;;;;;;;;5027235;28;20733;-79
2021/12/09 02:47:13;;;;;;;26.73;11.50;;;;;;;;;;5029473;28;20215;-79
2021/12/09 02:49:40;;;;;;;22.60;10.90;;;;;;;;;;5027870;28;20732;-81
2021/12/09 02:52:07;;;;;;;24.03;11.63;;;;;;;;;;5028498;28;20236;-79
2021/12/09 02:54:34;;;;;;;22.37;11.30;;;;;;;;;;5030105;28;20235;-79
2021/12/09 02:57:04;;;;;;;18.93;10.50;;;;;;;;;;5037958;28;20195;-78
2021/12/09 02:59:32;;;;;;;22.53;11.37;;;;;;;;;;5051484;28;20225;-79
2021/12/09 03:02:01;;;;;;;28.57;12.03;;;;;;;;;;5027262;28;20599;-80
2021/12/09 03:04:37;;;;;;;20.20;11.07;;;;;;;;;;5026893;28;20314;-80
2021/12/09 03:07:04;;;;;;;23.70;11.53;;;;;;;;;;5025020;28;20234;-80
2021/12/09 03:09:31;;;;;;;20.00;10.90;;;;;;;;;;5022394;28;20235;-80
2021/12/09 03:12:04;;;;;;;21.33;10.90;;;;;;;;;;5020584;28;20234;-80
2021/12/09 03:14:33;;;;;;;20.70;10.97;;;;;;;;;;5021798;28;20707;-80
2021/12/09 03:17:00;;;;;;;22.70;10.80;;;;;;;;;;5022393;28;20622;-80
2021/12/09 03:19:27;;;;;;;20.93;10.77;;;;;;;;;;5024886;28;20264;-80
2021/12/09 03:21:54;;;;;;;21.33;10.30;;;;;;;;;;5027831;28;20693;-80
2021/12/09 03:24:21;;;;;;;18.07;10.33;;;;;;;;;;5023672;28;20222;-80
2021/12/09 03:26:49;;;;;;;16.53;10.17;;;;;;;;;;5020402;28;20265;-80
2021/12/09 03:29:17;;;;;;;27.77;11.60;;;;;;;;;;5023820;28;20239;-80
2021/12/09 03:31:47;;;;;;;20.63;10.63;;;;;;;;;;5029336;28;20222;-80
2021/12/09 03:34:15;;;;;;;20.77;10.93;;;;;;;;;;5030148;28;20239;-80
2021/12/09 03:36:43;;;;;;;16.60;9.53;;;;;;;;;;5017744;28;20199;-80
2021/12/09 03:39:13;;;;;;;20.87;10.43;;;;;;;;;;5017298;28;20244;-80
2021/12/09 03:41:41;;;;;;;15.07;9.50;;;;;;;;;;5017088;28;20223;-80
2021/12/09 03:44:08;;;;;;;19.43;10.30;;;;;;;;;;5030242;28;20234;-80
2021/12/09 03:46:36;;;;;;;14.63;9.10;;;;;;;;;;5035589;28;20214;-80
2021/12/09 03:49:04;;;;;;;15.47;9.80;;;;;;;;;;5030794;28;20207;-79
2021/12/09 03:51:32;;;;;;;25.67;9.90;;;;;;;;;;5018306;28;20247;-80
2021/12/09 03:53:59;;;;;;;15.53;9.13;;;;;;;;;;5028551;28;20206;-80
2021/12/09 03:56:26;;;;;;;12.50;8.77;;;;;;;;;;5017198;28;20203;-79
2021/12/09 03:58:53;;;;;;;17.27;9.20;;;;;;;;;;5017166;28;20211;-80
2021/12/09 04:01:20;;;;;;;13.03;9.53;;;;;;;;;;5017818;28;20615;-80
2021/12/09 04:03:47;;;;;;;30.33;9.70;;;;;;;;;;5029479;28;20211;-79
2021/12/09 04:06:16;;;;;;;17.13;8.83;;;;;;;;;;5018227;28;20207;-79
2021/12/09 04:08:43;;;;;;;14.20;8.50;;;;;;;;;;5019088;28;20208;-80
2021/12/09 04:11:10;;;;;;;14.23;8.20;;;;;;;;;;5017651;28;20250;-79
2021/12/09 04:13:38;;;;;;;13.30;8.23;;;;;;;;;;5018495;28;20203;-79
2021/12/09 04:16:07;;;;;;;16.80;6.93;;;;;;;;;;5017220;28;20241;-79
2021/12/09 04:18:34;;;;;;;13.43;8.07;;;;;;;;;;5017871;28;20203;-79
2021/12/09 04:21:01;;;;;;;15.53;7.53;;;;;;;;;;5016921;28;20243;-80
2021/12/09 04:23:30;;;;;;;13.77;7.87;;;;;;;;;;5016083;28;20227;-79
2021/12/09 04:25:57;;;;;;;16.07;7.97;;;;;;;;;;5014640;28;20234;-79
2021/12/09 04:28:25;;;;;;;11.30;7.17;;;;;;;;;;5017010;28;20243;-79
2021/12/09 04:30:52;;;;;;;14.03;7.43;;;;;;;;;;5016029;28;20243;-79
2021/12/09 04:33:19;;;;;;;15.27;7.60;;;;;;;;;;5016972;28;20207;-79
2021/12/09 04:35:46;;;;;;;11.70;7.37;;;;;;;;;;5015680;28;20270;-79
2021/12/09 04:38:13;;;;;;;11.23;7.33;;;;;;;;;;5016405;28;20208;-79
2021/12/09 04:40:42;;;;;;;11.40;7.40;;;;;;;;;;5015949;28;20626;-79
2021/12/09 04:43:09;;;;;;;17.20;7.70;;;;;;;;;;5017695;28;20211;-79
2021/12/09 04:45:38;;;;;;;10.60;7.40;;;;;;;;;;5016135;28;20647;-79
2021/12/09 04:48:06;;;;;;;13.50;7.70;;;;;;;;;;5016479;28;20211;-79
2021/12/09 04:50:33;;;;;;;13.63;7.10;;;;;;;;;;5016693;28;20294;-79
2021/12/09 04:53:00;;;;;;;8.80;6.67;;;;;;;;;;5016739;28;20223;-79
2021/12/09 04:55:28;;;;;;;12.67;6.83;;;;;;;;;;5016186;28;20239;-79
2021/12/09 04:57:56;;;;;;;14.37;6.97;;;;;;;;;;5015344;28;20245;-80
2021/12/09 05:00:25;;;;;;;15.37;5.93;;;;;;;;;;5016901;28;20246;-80
2021/12/09 05:03:03;;;;;;;11.23;6.23;;;;;;;;;;5017151;28;20215;-80
2021/12/09 05:05:33;;;;;;;14.43;6.43;;;;;;;;;;5015634;28;20242;-80
2021/12/09 05:08:01;;;;;;;10.43;6.23;;;;;;;;;;5016977;28;20214;-80
2021/12/09 05:10:30;;;;;;;14.37;6.13;;;;;;;;;;5016364;28;20770;-80
2021/12/09 05:12:58;;;;;;;15.03;7.10;;;;;;;;;;5015755;28;20223;-80
2021/12/09 05:15:25;;;;;;;15.57;6.43;;;;;;;;;;5014801;28;20239;-79
2021/12/09 05:17:52;;;;;;;15.13;7.10;;;;;;;;;;5015967;28;20675;-79
2021/12/09 05:20:19;;;;;;;16.73;6.90;;;;;;;;;;5015122;28;20235;-79
2021/12/09 05:22:47;;;;;;;13.33;6.00;;;;;;;;;;5015785;28;20227;-79
2021/12/09 05:25:14;;;;;;;11.50;5.80;;;;;;;;;;5015603;28;20231;-79
2021/12/09 05:27:41;;;;;;;8.97;6.33;;;;;;;;;;5016784;28;20214;-79
2021/12/09 05:30:12;;;;;;;16.43;8.10;;;;;;;;;;5015938;28;20235;-79
2021/12/09 05:32:39;;;;;;;18.67;7.63;;;;;;;;;;5016655;28;20207;-79
2021/12/09 05:35:07;;;;;;;15.87;7.77;;;;;;;;;;5016603;28;20258;-79
2021/12/09 05:37:34;;;;;;;11.70;7.47;;;;;;;;;;5016030;28;20691;-79
2021/12/09 05:40:01;;;;;;;15.80;7.57;;;;;;;;;;5015079;28;20240;-79
2021/12/09 05:42:28;;;;;;;11.07;7.13;;;;;;;;;;5017075;28;20227;-79
2021/12/09 05:44:57;;;;;;;10.63;6.87;;;;;;;;;;5016261;28;20227;-79
2021/12/09 05:47:26;;;;;;;12.23;6.60;;;;;;;;;;5016709;28;20253;-79
2021/12/09 05:49:53;;;;;;;13.40;6.17;;;;;;;;;;5016236;28;20250;-79
2021/12/09 05:52:20;;;;;;;8.17;6.47;;;;;;;;;;5016340;28;20278;-79
2021/12/09 05:54:48;;;;;;;10.27;6.40;;;;;;;;;;5015716;28;20273;-78
2021/12/09 05:57:15;;;;;;;10.27;5.50;;;;;;;;;;5017139;28;20253;-79
2021/12/09 05:59:43;;;;;;;16.60;6.13;;;;;;;;;;5015680;28;20234;-79
2021/12/09 06:02:10;;;;;;;9.70;6.57;;;;;;;;;;4997665;28;20232;-79
2021/12/09 06:04:39;;;;;;;11.10;6.77;;;;;;;;;;4996299;28;20242;-79
2021/12/09 06:07:06;;;;;;;10.17;5.90;;;;;;;;;;4997614;28;20215;-79
2021/12/09 06:09:34;;;;;;;9.50;5.50;;;;;;;;;;4996071;28;20232;-78
2021/12/09 06:12:01;;;;;;;11.37;5.57;;;;;;;;;;5014300;28;20227;-77
2021/12/09 06:14:28;;;;;;;13.07;5.90;;;;;;;;;;5015210;28;20238;-77
2021/12/09 06:16:55;;;;;;;11.17;5.70;;;;;;;;;;4998843;28;20230;-76
2021/12/09 06:19:22;;;;;;;8.03;5.47;;;;;;;;;;4995957;28;20632;-77
2021/12/09 06:21:51;;;;;;;16.50;5.50;;;;;;;;;;4996243;28;20232;-76
2021/12/09 06:24:20;;;;;;;8.87;5.40;;;;;;;;;;4995999;28;20242;-76
2021/12/09 06:26:48;;;;;;;10.63;5.10;;;;;;;;;;4996048;28;20243;-77
2021/12/09 06:29:15;;;;;;;16.40;6.03;;;;;;;;;;4995700;28;20235;-77
2021/12/09 06:31:42;;;;;;;12.10;5.87;;;;;;;;;;4996062;28;20238;-76
2021/12/09 06:34:11;;;;;;;8.67;5.10;;;;;;;;;;4995501;28;20632;-76
2021/12/09 06:36:38;;;;;;;8.77;4.87;;;;;;;;;;4995722;28;20713;-77
2021/12/09 06:39:07;;;;;;;9.53;4.77;;;;;;;;;;4995871;28;20235;-77
2021/12/09 06:41:34;;;;;;;8.33;4.90;;;;;;;;;;4996147;28;20235;-77
2021/12/09 06:44:02;;;;;;;11.00;5.40;;;;;;;;;;4995886;28;20219;-77
2021/12/09 06:46:29;;;;;;;9.27;5.30;;;;;;;;;;4996019;28;20204;-77
2021/12/09 06:48:57;;;;;;;9.43;5.27;;;;;;;;;;5004405;28;20261;-77
2021/12/09 06:51:25;;;;;;;10.17;5.70;;;;;;;;;;5014457;28;20228;-77
2021/12/09 06:53:52;;;;;;;7.33;5.03;;;;;;;;;;5014915;28;20672;-77
2021/12/09 06:56:21;;;;;;;11.83;6.20;;;;;;;;;;5015287;28;20707;-77
2021/12/09 06:58:48;;;;;;;10.20;6.20;;;;;;;;;;5015058;28;20215;-77
2021/12/09 07:01:16;;;;;;;12.83;5.73;;;;;;;;;;5007447;28;20250;-76
2021/12/09 07:03:43;;;;;;;6.83;5.03;;;;;;;;;;4998131;28;20699;-78
2021/12/09 07:06:11;;;;;;;11.47;5.20;;;;;;;;;;5014847;28;20227;-77
2021/12/09 07:08:44;;;;;;;10.83;5.30;;;;;;;;;;5015226;28;20219;-77
2021/12/09 07:11:12;;;;;;;13.47;6.77;;;;;;;;;;5020973;28;20249;-78
2021/12/09 07:13:40;;;;;;;20.07;8.00;;;;;;;;;;5034863;28;20203;-78
2021/12/09 07:16:08;;;;;;;12.90;7.80;;;;;;;;;;5014443;28;20242;-78
2021/12/09 07:18:35;;;;;;;10.67;6.40;;;;;;;;;;5014776;28;20204;-77
2021/12/09 07:21:02;;;;;;;12.50;6.10;;;;;;;;;;5012647;28;20668;-77
2021/12/09 07:23:29;;;;;;;10.73;6.60;;;;;;;;;;5014622;28;20207;-77
2021/12/09 07:25:56;;;;;;;10.17;6.17;;;;;;;;;;5014118;28;20239;-76
2021/12/09 07:28:24;;;;;;;19.87;6.57;;;;;;;;;;5015003;28;20216;-77
2021/12/09 07:30:52;;;;;;;10.97;6.50;;;;;;;;;;5014052;28;20649;-76
2021/12/09 07:33:20;;;;;;;8.60;6.67;;;;;;;;;;5014545;28;20229;-76
2021/12/09 07:35:47;;;;;;;14.53;7.43;;;;;;;;;;5013725;28;20250;-77
2021/12/09 07:38:14;;;;;;;12.67;6.47;;;;;;;;;;5014519;28;20563;-77
2021/12/09 07:40:41;;;;;;;17.57;8.83;;;;;;;;;;5014053;28;20239;-77
2021/12/09 07:43:09;;;;;;;17.03;8.97;;;;;;;;;;5014473;28;20211;-76
2021/12/09 07:45:36;;;;;;;18.97;8.60;;;;;;;;;;5013448;28;20354;-77
2021/12/09 07:48:05;;;;;;;15.40;9.20;;;;;;;;;;5009866;28;20215;-75
2021/12/09 07:50:33;;;;;;;18.40;10.27;;;;;;;;;;4999409;28;20585;-77
2021/12/09 07:53:10;;;;;;;20.30;12.10;;;;;;;;;;4994861;28;20215;-78
2021/12/09 07:55:37;;;;;;;20.37;10.70;;;;;;;;;;5008738;28;20286;-76
2021/12/09 07:58:04;;;;;;;18.70;11.20;;;;;;;;;;5014102;28;20290;-76
2021/12/09 08:00:32;;;;;;;18.63;9.80;;;;;;;;;;5011539;28;20243;-76
2021/12/09 08:03:00;;;;;;;13.13;9.50;;;;;;;;;;5012545;28;20824;-76
2021/12/09 08:05:30;;;;;;;16.73;10.03;;;;;;;;;;5011105;28;20239;-76
2021/12/09 08:07:57;;;;;;;16.83;9.60;;;;;;;;;;5013629;28;20733;-76
2021/12/09 08:10:24;;;;;;;15.23;9.70;;;;;;;;;;5013271;28;20247;-76
2021/12/09 08:12:51;;;;;;;15.00;9.23;;;;;;;;;;5013676;28;20238;-76
2021/12/09 08:15:18;;;;;;;15.43;9.20;;;;;;;;;;5012987;28;20239;-76
2021/12/09 08:17:58;;;;;;;18.80;8.77;;;;;;;;;;5013499;28;20207;-76
2021/12/09 08:20:25;;;;;;;12.87;7.03;;;;;;;;;;5012952;28;20238;-76
2021/12/09 08:22:54;;;;;;;12.97;7.77;;;;;;;;;;5013498;28;20341;-76
2021/12/09 08:25:21;;;;;;;20.77;9.87;;;;;;;;;;5012733;28;20246;-76
2021/12/09 08:27:48;;;;;;;16.87;9.50;;;;;;;;;;5013370;28;20211;-76
2021/12/09 08:30:16;;;;;;;18.50;8.97;;;;;;;;;;5012935;28;20332;-76
2021/12/09 08:32:43;;;;;;;19.10;11.63;;;;;;;;;;5013013;28;20211;-76
2021/12/09 08:35:10;;;;;;;12.87;7.57;;;;;;;;;;5012545;28;20239;-76
2021/12/09 08:37:37;;;;;;;24.33;11.93;;;;;;;;;;5013004;28;20306;-76
2021/12/09 08:40:07;;;;;;;21.47;10.30;;;;;;;;;;5013014;28;20239;-76
2021/12/09 08:42:34;;;;;;;18.93;11.90;;;;;;;;;;5013154;28;20675;-76
2021/12/09 08:45:01;;;;;;;16.67;10.83;;;;;;;;;;5012416;28;20711;-76
2021/12/09 08:47:28;;;;;;;22.37;12.37;;;;;;;;;;5012993;28;20214;-76
2021/12/09 08:49:55;;;;;;;19.27;10.93;;;;;;;;;;5012468;28;20240;-76
2021/12/09 08:52:22;;;;;;;17.47;11.33;;;;;;;;;;5013170;28;20619;-76
2021/12/09 08:54:49;;;;;;;16.93;11.30;;;;;;;;;;5012297;28;20238;-76
2021/12/09 08:57:19;;;;;;;18.43;10.10;;;;;;;;;;5012956;28;20228;-76
2021/12/09 08:59:46;;;;;;;14.33;9.43;;;;;;;;;;5012197;28;21126;-76
2021/12/09 09:02:14;;;;;;;17.23;10.70;;;;;;;;;;5028347;28;20242;-76
2021/12/09 09:04:41;;;;;;;16.53;9.83;;;;;;;;;;5031892;28;20230;-76
2021/12/09 09:07:08;;;;;;;18.03;11.63;;;;;;;;;;5032458;28;20218;-77
2021/12/09 09:09:37;;;;;;;16.80;10.60;;;;;;;;;;5031884;28;20241;-77
2021/12/09 09:12:06;;;;;;;14.03;9.40;;;;;;;;;;5032444;28;20238;-77
2021/12/09 09:14:34;;;;;;;11.63;5.87;;;;;;;;;;5031652;28;20726;-77
2021/12/09 09:17:02;;;;;;;21.27;11.17;;;;;;;;;;5032230;28;20245;-78
2021/12/09 09:19:29;;;;;;;19.17;10.77;;;;;;;;;;5031710;28;20234;-77
2021/12/09 09:21:56;;;;;;;11.10;8.67;;;;;;;;;;5032019;28;20233;-77
2021/12/09 09:24:23;;;;;;;19.00;10.57;;;;;;;;;;5027348;28;20227;-77
2021/12/09 09:26:50;;;;;;;15.33;9.97;;;;;;;;;;5012486;28;20212;-77
2021/12/09 09:29:17;;;;;;;13.40;9.87;;;;;;;;;;5012128;28;20238;-77
2021/12/09 09:31:45;;;;;;;15.07;9.43;;;;;;;;;;5012161;28;20237;-76
2021/12/09 09:34:13;;;;;;;13.97;9.30;;;;;;;;;;5012846;28;20239;-78
2021/12/09 09:36:44;;;;;;;14.80;10.00;;;;;;;;;;5012265;28;20695;-78
2021/12/09 09:39:18;;;;;;;14.80;9.90;;;;;;;;;;5012353;28;20237;-78
2021/12/09 09:41:48;;;;;;;17.97;9.33;;;;;;;;;;5010021;28;20231;-78
2021/12/09 09:44:17;;;;;;;15.43;9.70;;;;;;;;;;5009609;28;20255;-78
2021/12/09 09:46:45;;;;;;;17.00;9.07;;;;;;;;;;5011473;28;20229;-77
2021/12/09 09:49:13;;;;;;;19.30;8.43;;;;;;;;;;5011712;28;20240;-75
2021/12/09 09:51:40;;;;;;;15.60;9.03;;;;;;;;;;5011909;28;20277;-76
2021/12/09 09:54:09;;;;;;;17.87;10.00;;;;;;;;;;5011559;28;20701;-77
2021/12/09 09:56:41;;;;;;;13.47;8.37;;;;;;;;;;5011933;28;20235;-78
2021/12/09 09:59:10;;;;;;;12.90;8.97;;;;;;;;;;5011780;28;20230;-77
2021/12/09 10:01:38;;;;;;;20.00;8.23;;;;;;;;;;5022477;28;20234;-78
2021/12/09 10:04:13;;;;;;;12.50;7.50;;;;;;;;;;5031621;28;20246;-78
2021/12/09 10:06:43;;;;;;;10.70;7.47;;;;;;;;;;5032678;28;20299;-78
2021/12/09 10:09:10;;;;;;;17.03;7.60;;;;;;;;;;5031524;28;20231;-77
2021/12/09 10:11:37;;;;;;;15.77;7.17;;;;;;;;;;5031529;28;20235;-78
2021/12/09 10:14:12;;;;;;;8.67;6.10;;;;;;;;;;5031134;28;20220;-78
2021/12/09 10:16:41;;;;;;;9.70;7.10;;;;;;;;;;5031229;28;20240;-78
2021/12/09 10:19:16;;;;;;;16.20;6.90;;;;;;;;;;5031291;28;20256;-78
2021/12/09 10:21:44;;;;;;;11.23;6.70;;;;;;;;;;5031167;28;20698;-78
2021/12/09 10:24:11;;;;;;;8.97;6.80;;;;;;;;;;5031676;28;20262;-77
2021/12/09 10:26:40;;;;;;;15.20;7.53;;;;;;;;;;5032085;28;20578;-78
2021/12/09 10:29:09;;;;;;;14.20;7.43;;;;;;;;;;5032170;28;20232;-77
2021/12/09 10:31:41;;;;;;;12.17;6.43;;;;;;;;;;5032613;28;20296;-79
2021/12/09 10:34:14;;;;;;;12.30;7.37;;;;;;;;;;5035011;28;20258;-78
2021/12/09 10:36:56;;;;;;;13.90;6.30;;;;;;;;;;5012119;28;20251;-77
2021/12/09 10:39:32;;;;;;;15.20;8.10;;;;;;;;;;5017990;28;20233;-78
2021/12/09 10:42:00;;;;;;;11.97;7.60;;;;;;;;;;5030720;28;20229;-77
2021/12/09 10:44:35;;;;;;;13.80;7.00;;;;;;;;;;5024902;28;20280;-77
2021/12/09 10:47:09;;;;;;;11.20;7.30;;;;;;;;;;5011537;28;20213;-78
2021/12/09 10:49:46;;;;;;;14.53;7.87;;;;;;;;;;5010539;28;20237;-78
2021/12/09 10:52:23;;;;;;;12.23;6.90;;;;;;;;;;5011414;28;20233;-78
2021/12/09 10:54:50;;;;;;;11.93;6.10;;;;;;;;;;5019121;28;20237;-77
2021/12/09 10:57:27;;;;;;;12.30;5.93;;;;;;;;;;5034333;28;20224;-78
2021/12/09 10:59:54;;;;;;;10.20;6.43;;;;;;;;;;5033602;28;20236;-77
2021/12/09 11:02:21;;;;;;;12.27;6.87;;;;;;;;;;5034486;28;20700;-77
2021/12/09 11:04:59;;;;;;;16.10;7.23;;;;;;;;;;5033696;28;20778;-77
2021/12/09 11:07:30;;;;;;;15.37;6.87;;;;;;;;;;5034349;28;20208;-78
2021/12/09 11:10:21;;;;;;;11.70;6.17;;;;;;;;;;5034133;28;20245;-78
2021/12/09 11:12:52;;;;;;;8.63;6.50;;;;;;;;;;5034192;28;20217;-77
2021/12/09 11:15:21;;;;;;;12.83;7.07;;;;;;;;;;5026239;28;20235;-77
2021/12/09 11:17:51;;;;;;;10.73;6.03;;;;;;;;;;5034350;28;20777;-78
2021/12/09 11:20:37;;;;;;;10.50;6.90;;;;;;;;;;5033899;28;20312;-78
2021/12/09 11:23:21;;;;;;;11.30;7.07;;;;;;;;;;5034677;28;20704;-78
2021/12/09 11:25:49;;;;;;;13.20;7.50;;;;;;;;;;5033755;28;20241;-78
2021/12/09 11:28:16;;;;;;;15.07;7.47;;;;;;;;;;5031176;28;20207;-77
2021/12/09 11:31:09;;;;;;;15.40;10.93;;;;;;;;;;5012940;28;20244;-77
2021/12/09 11:33:41;;;;;;;13.27;8.80;;;;;;;;;;4994075;28;20207;-77
2021/12/09 11:36:14;;;;;;;17.67;7.97;;;;;;;;;;4993619;28;20710;-78
2021/12/09 11:39:05;;;;;;;19.77;9.03;;;;;;;;;;4993907;28;20254;-77
2021/12/09 11:41:36;;;;;;;15.93;8.73;;;;;;;;;;5012450;28;20237;-77
2021/12/09 11:44:03;;;;;;;13.23;8.63;;;;;;;;;;5013103;28;20216;-78
2021/12/09 11:46:31;;;;;;;9.87;5.83;;;;;;;;;;5013042;28;20215;-77
2021/12/09 11:48:59;;;;;;;8.40;6.10;;;;;;;;;;5011426;28;20558;-76
2021/12/09 11:51:26;;;;;;;20.63;9.37;;;;;;;;;;4993532;28;20230;-76
2021/12/09 11:53:56;;;;;;;17.73;9.00;;;;;;;;;;4993080;28;20243;-76
2021/12/09 11:56:30;;;;;;;15.30;9.00;;;;;;;;;;4993841;28;20218;-76
2021/12/09 12:07:55;;;;;;;13.67;8.73;;;;;;;;;;5011681;28;20265;-76
2021/12/09 12:13:33;;;;;;;15.17;8.40;;;;;;;;;;5012924;28;20210;-76
2021/12/09 12:16:22;;;;;;;12.90;7.17;;;;;;;;;;5012716;28;20316;-76
2021/12/09 12:18:57;;;;;;;16.17;6.93;;;;;;;;;;5012255;28;20273;-76
2021/12/09 12:21:45;;;;;;;15.97;8.00;;;;;;;;;;5013015;28;20233;-76
2021/12/09 12:24:36;;;;;;;11.93;7.93;;;;;;;;;;5011960;28;20238;-76
2021/12/09 12:27:08;;;;;;;15.30;8.50;;;;;;;;;;5012353;28;20210;-76
2021/12/09 12:30:01;;;;;;;16.83;7.80;;;;;;;;;;5012115;28;20227;-76
2021/12/09 12:32:56;;;;;;;13.77;7.63;;;;;;;;;;5012893;28;20250;-76
2021/12/09 12:38:30;;;;;;;13.97;8.97;;;;;;;;;;5012236;28;20639;-77
2021/12/09 12:41:06;;;;;;;14.83;8.23;;;;;;;;;;5011910;28;20250;-77
2021/12/09 12:43:37;;;;;;;16.10;8.70;;;;;;;;;;5011869;28;20209;-77
2021/12/09 12:46:09;;;;;;;12.87;8.33;;;;;;;;;;5011931;28;20235;-77
2021/12/09 12:51:30;;;;;;;12.13;7.13;;;;;;;;;;5011228;28;20239;-77
2021/12/09 12:53:59;;;;;;;14.40;8.57;;;;;;;;;;5013762;28;20217;-77
2021/12/09 12:56:28;;;;;;;14.20;8.50;;;;;;;;;;5032510;28;20635;-77
2021/12/09 12:59:15;;;;;;;17.97;8.13;;;;;;;;;;5031574;28;20226;-77
2021/12/09 13:01:48;;;;;;;17.63;8.80;;;;;;;;;;5031904;28;20237;-76
2021/12/09 13:04:38;;;;;;;13.10;7.13;;;;;;;;;;5027613;28;20245;-77
2021/12/09 13:07:19;;;;;;;17.73;8.93;;;;;;;;;;5012369;28;20203;-78
2021/12/09 13:09:54;;;;;;;13.47;7.33;;;;;;;;;;5011688;28;20297;-77
2021/12/09 13:12:39;;;;;;;15.10;9.00;;;;;;;;;;5011800;28;20238;-77
2021/12/09 13:15:07;;;;;;;10.80;7.70;;;;;;;;;;5011443;28;20262;-77
2021/12/09 13:17:37;;;;;;;13.57;8.17;;;;;;;;;;5011719;28;20269;-77
2021/12/09 13:20:10;;;;;;;13.57;9.30;;;;;;;;;;5010137;28;20263;-77
2021/12/09 13:22:41;;;;;;;13.60;8.50;;;;;;;;;;5011618;28;20214;-77
2021/12/09 13:25:16;;;;;;;13.00;8.33;;;;;;;;;;5011158;28;20609;-77
2021/12/09 13:27:52;;;;;;;15.60;6.67;;;;;;;;;;5011484;28;20611;-77
2021/12/09 13:30:50;;;;;;;10.23;6.10;;;;;;;;;;5016446;28;20304;-77
2021/12/09 13:33:35;;;;;;;13.57;7.10;;;;;;;;;;5031431;28;20265;-77
2021/12/09 13:36:34;;;;;;;10.87;7.57;;;;;;;;;;5030761;28;20715;-77
2021/12/09 13:39:20;;;;;;;14.33;8.73;;;;;;;;;;5028721;28;20222;-77
2021/12/09 13:47:29;;;;;;;10.17;5.93;;;;;;;;;;5031308;28;20201;-77
2021/12/09 13:50:00;;;;;;;14.43;6.50;;;;;;;;;;5030652;28;20265;-77
2021/12/09 13:55:16;;;;;;;10.73;6.60;;;;;;;;;;5030762;28;20725;-77
2021/12/09 13:57:45;;;;;;;12.97;6.47;;;;;;;;;;5031990;28;20234;-77
2021/12/09 14:00:30;;;;;;;13.13;7.20;;;;;;;;;;5030202;28;20237;-77
2021/12/09 14:02:58;;;;;;;12.53;6.80;;;;;;;;;;5011169;28;20673;-77
2021/12/09 14:05:26;;;;;;;10.20;7.77;;;;;;;;;;5010484;28;20231;-76
2021/12/09 14:08:01;;;;;;;13.33;7.17;;;;;;;;;;5011040;28;20218;-76
2021/12/09 14:10:33;;;;;;;9.40;6.70;;;;;;;;;;4996605;28;20249;-77
2021/12/09 14:13:04;;;;;;;11.40;7.50;;;;;;;;;;4991653;28;20215;-77
2021/12/09 14:15:37;;;;;;;10.60;7.23;;;;;;;;;;4990857;28;20239;-77
2021/12/09 14:18:09;;;;;;;9.53;6.53;;;;;;;;;;4991600;28;20286;-76
2021/12/09 14:20:36;;;;;;;15.50;7.67;;;;;;;;;;4990626;28;20242;-76
2021/12/09 14:23:04;;;;;;;9.57;6.50;;;;;;;;;;4991467;28;20664;-77
2021/12/09 14:25:34;;;;;;;14.83;6.73;;;;;;;;;;4990660;28;20340;-76
2021/12/09 14:28:02;;;;;;;14.37;7.47;;;;;;;;;;4991414;28;20661;-77
2021/12/09 14:30:30;;;;;;;16.13;7.60;;;;;;;;;;4992790;28;20255;-77
2021/12/09 14:33:00;;;;;;;12.50;6.57;;;;;;;;;;5005012;28;20222;-77
2021/12/09 14:35:30;;;;;;;18.20;6.87;;;;;;;;;;5015299;28;20226;-77
2021/12/09 14:37:57;;;;;;;11.53;7.13;;;;;;;;;;5015182;28;20237;-75
2021/12/09 14:40:27;;;;;;;14.43;7.33;;;;;;;;;;5014705;28;20610;-76
2021/12/09 14:42:57;;;;;;;4.00;3.67;;;;;;;;;;5013794;28;20203;-77
2021/12/09 14:45:25;;;;;;;10.57;6.40;;;;;;;;;;5014347;28;20242;-77
2021/12/09 14:47:57;;;;;;;10.80;6.93;;;;;;;;;;5014432;28;20234;-77
2021/12/09 14:50:30;;;;;;;11.37;7.80;;;;;;;;;;5014175;28;20223;-77
2021/12/09 14:52:57;;;;;;;8.67;6.67;;;;;;;;;;5014803;28;20276;-76
2021/12/09 14:55:26;;;;;;;17.13;6.77;;;;;;;;;;5014146;28;20262;-77
2021/12/09 14:58:05;;;;;;;19.97;8.07;;;;;;;;;;5014474;28;20318;-77
2021/12/09 15:00:41;;;;;;;20.47;8.03;;;;;;;;;;5013569;28;20246;-76
2021/12/09 15:03:08;;;;;;;13.10;6.90;;;;;;;;;;5039839;23;20726;-76
2021/12/09 15:05:46;;;;;;;19.00;7.87;;;;;;;;;;5037931;28;20309;-79
2021/12/09 15:08:20;;;;;;;13.03;7.20;;;;;;;;;;5038435;28;20257;-79